Time;durP1;ratioP1;P1;durP2;ratioP2;P2;SDS_P1;SDS_P2;PMS_P1;PMS_P2;Temp;Humidity;BMP_temperature;BMP_pressure;BME280_temperature;BME280_humidity;BME280_pressure;Samples;Min_cycle;Max_cycle;Signal;HPM_P1;HPM_P2
2021/01/07 10:47:59;;;;;;;24.27;16.03;;;;;;;2.07;90.35;98663.50;5167431;27;20542;-84
2021/01/07 10:50:29;;;;;;;23.37;16.37;;;;;;;2.49;89.37;98651.66;5167160;27;38965;-83
2021/01/07 10:53:05;;;;;;;23.53;16.10;;;;;;;3.04;86.63;98660.25;5150261;27;42088;-83
2021/01/07 10:55:38;;;;;;;21.00;14.80;;;;;;;3.35;83.13;98653.88;5149656;27;42160;-82
2021/01/07 10:58:31;;;;;;;23.77;14.63;;;;;;;3.65;80.96;98652.75;5207172;22;41827;-84
2021/01/07 11:01:14;;;;;;;22.30;14.83;;;;;;;3.74;79.51;98636.69;5103398;28;40046;-83
2021/01/07 11:03:57;;;;;;;22.27;15.20;;;;;;;3.94;79.41;98634.16;5104555;28;41885;-82
2021/01/07 11:06:31;;;;;;;25.23;15.70;;;;;;;4.10;78.52;98644.00;5088673;28;41706;-82
2021/01/07 11:09:02;;;;;;;23.80;15.63;;;;;;;4.13;78.79;98623.78;5205138;22;43025;-81
2021/01/07 11:11:36;;;;;;;22.80;15.53;;;;;;;4.30;78.08;98634.47;5084504;28;39239;-82
2021/01/07 11:14:11;;;;;;;27.03;16.43;;;;;;;4.30;77.01;98621.34;5067140;28;40546;-82
2021/01/07 11:16:42;;;;;;;21.97;15.37;;;;;;;4.47;77.12;98632.88;5067554;28;42273;-82
2021/01/07 11:19:15;;;;;;;22.70;15.37;;;;;;;4.43;76.86;98615.59;5083822;28;42218;-81
2021/01/07 11:21:45;;;;;;;20.53;14.27;;;;;;;4.59;76.50;98621.88;5163946;22;39754;-83
2021/01/07 11:24:13;;;;;;;18.50;13.67;;;;;;;4.64;76.40;98618.16;5063742;28;42580;-83
2021/01/07 11:26:42;;;;;;;20.13;14.60;;;;;;;4.56;75.01;98611.53;5050800;28;42184;-83
2021/01/07 11:29:09;;;;;;;20.33;14.73;;;;;;;4.66;74.72;98628.59;5046798;28;41237;-82
2021/01/07 11:31:38;;;;;;;21.20;14.97;;;;;;;4.66;74.77;98629.44;5046288;28;39986;-84
2021/01/07 11:34:07;;;;;;;20.83;14.47;;;;;;;4.58;74.74;98609.69;5166880;22;40467;-84
2021/01/07 11:36:41;;;;;;;21.77;15.20;;;;;;;4.61;73.80;98631.41;5087534;28;42601;-84
2021/01/07 11:39:13;;;;;;;21.03;14.13;;;;;;;4.52;73.91;98609.97;5088322;28;41363;-83
2021/01/07 11:41:53;;;;;;;19.27;14.20;;;;;;;4.48;72.97;98608.38;5087973;28;40052;-83
2021/01/07 11:44:41;;;;;;;20.17;14.17;;;;;;;4.51;72.98;98614.34;5172207;22;40788;-82
2021/01/07 11:47:10;;;;;;;20.43;14.57;;;;;;;4.58;73.87;98613.16;5069945;28;41865;-82
2021/01/07 11:49:41;;;;;;;20.97;14.50;;;;;;;4.61;73.57;98602.56;5068238;28;41220;-81
2021/01/07 11:52:10;;;;;;;21.10;14.27;;;;;;;4.56;73.55;98594.03;5084368;28;39364;-82
2021/01/07 11:54:39;;;;;;;19.90;14.33;;;;;;;4.62;73.50;98591.16;5084589;28;40683;-81
2021/01/07 11:57:08;;;;;;;21.97;14.77;;;;;;;4.69;72.94;98608.34;5157266;22;43097;-82
2021/01/07 11:59:37;;;;;;;18.83;13.93;;;;;;;4.74;73.43;98592.38;5033508;28;41214;-81
2021/01/07 12:02:09;;;;;;;17.43;13.03;;;;;;;4.69;73.41;98565.53;5032420;28;39071;-82
2021/01/07 12:04:38;;;;;;;17.37;12.67;;;;;;;4.82;72.79;98592.06;5032584;28;40792;-80
2021/01/07 12:07:21;;;;;;;17.40;13.30;;;;;;;4.76;72.78;98568.72;5138944;22;42368;-83
2021/01/07 12:09:49;;;;;;;20.23;13.10;;;;;;;4.59;72.75;98537.97;5034169;28;40592;-82
2021/01/07 12:12:16;;;;;;;20.27;14.37;;;;;;;4.93;72.42;98588.06;5056091;28;39949;-82
2021/01/07 12:14:48;;;;;;;17.43;12.83;;;;;;;4.86;72.19;98556.91;5053719;28;40934;-80
2021/01/07 12:17:15;;;;;;;19.30;13.53;;;;;;;5.03;71.93;98557.84;5070145;28;42800;-81
2021/01/07 12:19:43;;;;;;;20.10;14.40;;;;;;;5.27;71.68;98579.53;5158410;22;42890;-81
2021/01/07 12:22:14;;;;;;;18.10;13.80;;;;;;;5.39;71.22;98583.34;5057590;28;39187;-81
2021/01/07 12:24:44;;;;;;;19.53;13.23;;;;;;;5.44;70.69;98570.03;5069583;28;41034;-77
2021/01/07 12:27:11;;;;;;;19.70;13.33;;;;;;;5.56;70.74;98579.97;5070731;28;42606;-78
2021/01/07 12:29:40;;;;;;;18.57;12.70;;;;;;;5.62;70.61;98579.66;5052962;28;41453;-76
2021/01/07 12:32:15;;;;;;;17.00;12.77;;;;;;;5.67;70.14;98572.44;5188488;22;40744;-76
2021/01/07 12:34:52;;;;;;;17.83;11.73;;;;;;;5.69;69.48;98583.69;5110595;27;42316;-76
2021/01/07 12:37:21;;;;;;;16.23;11.37;;;;;;;5.66;69.31;98575.97;5108834;28;42619;-76
2021/01/07 12:39:57;;;;;;;18.93;12.80;;;;;;;5.62;68.94;98571.78;5108595;28;42066;-75
2021/01/07 12:42:29;;;;;;;15.87;11.30;;;;;;;5.76;69.24;98585.13;5191328;22;40466;-76
2021/01/07 12:45:00;;;;;;;17.07;13.20;;;;;;;5.76;68.54;98587.75;5088338;28;42070;-76
2021/01/07 12:47:28;;;;;;;18.77;12.80;;;;;;;5.73;67.92;98585.25;5084157;28;42618;-76
2021/01/07 12:49:57;;;;;;;15.57;11.10;;;;;;;5.58;67.31;98572.84;5071577;28;41259;-76
2021/01/07 12:52:26;;;;;;;14.10;10.60;;;;;;;5.60;66.49;98590.22;5087816;28;40869;-75
2021/01/07 12:54:54;;;;;;;15.70;11.33;;;;;;;5.49;66.46;98575.91;5165433;22;42394;-76
2021/01/07 12:57:24;;;;;;;13.80;11.03;;;;;;;5.43;66.66;98573.56;5051020;28;41413;-76
2021/01/07 13:00:01;;;;;;;13.20;9.73;;;;;;;5.55;66.72;98589.63;5069092;28;42309;-76
2021/01/07 13:02:38;;;;;;;14.87;10.57;;;;;;;5.57;66.79;98590.38;5066450;28;39809;-76
2021/01/07 13:05:19;;;;;;;13.90;10.30;;;;;;;5.58;66.10;98596.47;5093341;22;41520;31
2021/01/07 13:07:48;;;;;;;13.67;10.33;;;;;;;5.55;66.40;98589.63;5048334;28;43326;-76
2021/01/07 13:10:16;;;;;;;13.30;10.30;;;;;;;5.56;66.65;98586.06;5050518;28;41381;-74
2021/01/07 13:12:45;;;;;;;14.40;10.07;;;;;;;5.36;65.66;98560.72;5050239;28;40684;-76
2021/01/07 13:15:13;;;;;;;16.03;10.90;;;;;;;5.50;65.97;98590.75;5033758;28;41470;-74
2021/01/07 13:17:42;;;;;;;14.83;11.70;;;;;;;5.47;66.36;98591.72;5165995;22;43511;-81
2021/01/07 13:20:11;;;;;;;15.93;11.17;;;;;;;5.48;66.05;98587.31;5055554;28;41265;-81
2021/01/07 13:22:39;;;;;;;14.80;10.57;;;;;;;5.48;65.83;98592.56;5055156;28;38723;-82
2021/01/07 13:25:10;;;;;;;16.03;12.03;;;;;;;5.19;66.58;98539.66;5071521;28;42827;-82
2021/01/07 13:27:38;;;;;;;14.97;10.90;;;;;;;5.41;66.55;98579.75;5072167;28;42261;-82
2021/01/07 13:30:07;;;;;;;15.23;10.20;;;;;;;5.36;66.80;98565.97;5138710;22;41477;-84
2021/01/07 13:32:34;;;;;;;15.93;11.10;;;;;;;5.29;66.41;98559.31;5034616;28;38787;-82
2021/01/07 13:35:03;;;;;;;17.10;12.07;;;;;;;5.40;66.06;98592.94;5051582;28;41729;-81
2021/01/07 13:37:32;;;;;;;16.10;11.43;;;;;;;5.29;66.55;98582.94;5035092;28;42054;-82
2021/01/07 13:40:28;;;;;;;15.03;11.30;;;;;;;5.27;66.04;98583.91;5035969;22;42263;31
2021/01/07 13:43:00;;;;;;;17.10;11.30;;;;;;;5.23;66.92;98587.59;5030055;28;38846;-83
2021/01/07 13:45:30;;;;;;;14.83;10.57;;;;;;;5.15;67.01;98571.34;5014982;28;41837;-83
2021/01/07 13:47:58;;;;;;;14.10;10.27;;;;;;;5.14;65.96;98591.50;5048532;28;41841;-82
2021/01/07 13:50:27;;;;;;;15.27;10.43;;;;;;;5.11;66.15;98588.16;5031312;28;43585;-83
2021/01/07 13:52:59;;;;;;;13.90;9.90;;;;;;;5.07;66.24;98587.41;5136808;22;39028;-82
2021/01/07 13:55:26;;;;;;;13.87;9.83;;;;;;;4.93;66.58;98566.22;5047915;28;41478;-84
2021/01/07 13:57:54;;;;;;;13.13;9.43;;;;;;;5.04;66.84;98587.59;5055355;28;41892;-83
2021/01/07 14:00:23;;;;;;;15.70;10.93;;;;;;;5.03;66.87;98596.38;5031757;28;42028;-83
2021/01/07 14:02:50;;;;;;;15.17;10.20;;;;;;;4.95;66.15;98593.22;5048547;28;39168;-86
2021/01/07 14:05:18;;;;;;;13.10;9.03;;;;;;;4.77;65.62;98579.16;5146557;22;41239;-83
2021/01/07 14:07:51;;;;;;;11.57;8.37;;;;;;;4.84;66.03;98590.22;5014194;28;41400;-82
2021/01/07 14:10:20;;;;;;;11.53;8.57;;;;;;;4.78;66.41;98595.75;5032532;28;42214;-83
2021/01/07 14:12:53;;;;;;;11.33;8.50;;;;;;;4.77;66.24;98594.03;5067453;28;40065;-82
2021/01/07 14:15:22;;;;;;;11.70;7.17;;;;;;;4.67;66.48;98581.31;5128144;22;41468;-84
2021/01/07 14:17:50;;;;;;;9.63;7.67;;;;;;;4.72;66.76;98596.84;5071473;28;42551;-83
2021/01/07 14:20:17;;;;;;;10.77;7.73;;;;;;;4.69;66.88;98576.00;5054143;28;42620;-83
2021/01/07 14:22:45;;;;;;;12.27;8.23;;;;;;;4.58;66.91;98568.59;5054718;28;38918;-83
2021/01/07 14:25:14;;;;;;;9.90;7.37;;;;;;;4.47;66.77;98547.22;5054406;28;40830;-83
2021/01/07 14:27:48;;;;;;;9.80;7.53;;;;;;;4.61;66.29;98583.34;5229681;22;41782;-81
2021/01/07 14:30:17;;;;;;;9.70;6.67;;;;;;;4.57;66.38;98582.66;5053010;28;41175;-80
2021/01/07 14:32:48;;;;;;;11.13;7.40;;;;;;;4.46;66.97;98558.63;5053589;28;39778;-81
2021/01/07 14:35:17;;;;;;;8.63;6.60;;;;;;;4.50;66.28;98581.19;5067620;28;42406;-81
2021/01/07 14:37:49;;;;;;;9.57;6.77;;;;;;;4.45;66.61;98579.69;5054004;28;42926;-81
2021/01/07 14:40:19;;;;;;;11.37;7.27;;;;;;;4.30;66.24;98568.06;5140002;22;41311;-81
2021/01/07 14:42:48;;;;;;;10.67;7.27;;;;;;;4.34;66.70;98583.59;5050230;28;40211;-80
2021/01/07 14:45:17;;;;;;;10.37;6.63;;;;;;;4.30;66.44;98583.78;5050619;28;41759;-81
2021/01/07 14:47:49;;;;;;;10.30;7.00;;;;;;;4.11;67.13;98551.38;5050836;28;41943;-81
2021/01/07 14:50:19;;;;;;;10.37;7.43;;;;;;;4.11;66.89;98554.00;5035168;28;41345;-81
2021/01/07 14:52:49;;;;;;;9.33;7.13;;;;;;;4.25;66.68;98577.88;5140246;22;40796;-80
2021/01/07 14:55:18;;;;;;;13.23;7.40;;;;;;;4.16;67.15;98565.16;5066294;28;41840;-80
2021/01/07 14:58:23;;;;;;;9.80;7.07;;;;;;;4.21;66.96;98584.16;5050946;28;42222;-80
2021/01/07 15:00:54;;;;;;;10.80;7.60;;;;;;;4.15;66.97;98585.28;5034789;28;41423;-81
2021/01/07 15:03:42;;;;;;;11.00;8.07;;;;;;;4.14;67.81;98580.09;5135370;22;39588;-80
